Time;durP1;ratioP1;P1;durP2;ratioP2;P2;SDS_P1;SDS_P2;PMS_P1;PMS_P2;Temp;Humidity;BMP_temperature;BMP_pressure;BME280_temperature;BME280_humidity;BME280_pressure;Samples;Min_cycle;Max_cycle;Signal;HPM_P1;HPM_P2
2022/05/04 00:00:01;;;;;;;8.70;7.90;;;11.30;99.90;;;;;;4885211;29;20465;-83
2022/05/04 00:02:28;;;;;;;11.07;8.30;;;11.20;99.90;;;;;;4884701;29;20805;-83
2022/05/04 00:04:56;;;;;;;9.93;9.13;;;11.20;99.90;;;;;;4884735;29;20459;-82
2022/05/04 00:07:23;;;;;;;8.53;7.93;;;11.10;99.90;;;;;;4899942;29;20901;-83
2022/05/04 00:09:50;;;;;;;8.13;7.33;;;11.10;99.90;;;;;;4903725;29;20835;-83
2022/05/04 00:12:16;;;;;;;9.43;8.53;;;11.10;99.90;;;;;;4888903;29;20470;-82
2022/05/04 00:14:43;;;;;;;9.53;8.13;;;11.10;99.90;;;;;;4899699;29;21683;-83
2022/05/04 00:17:10;;;;;;;9.33;8.43;;;11.10;99.90;;;;;;4884322;29;20478;-83
2022/05/04 00:19:37;;;;;;;9.30;8.40;;;11.00;99.90;;;;;;4884592;29;20469;-83
2022/05/04 00:22:05;;;;;;;9.20;8.30;;;11.00;99.90;;;;;;4884556;29;20469;-82
2022/05/04 00:24:32;;;;;;;9.33;8.40;;;11.00;99.90;;;;;;4900626;29;20466;-82
2022/05/04 00:26:58;;;;;;;9.10;8.30;;;11.00;99.90;;;;;;4902596;29;21001;-83
2022/05/04 00:29:25;;;;;;;8.27;7.40;;;11.00;99.90;;;;;;4902793;29;20465;-83
2022/05/04 00:31:52;;;;;;;9.40;8.60;;;10.90;99.90;;;;;;4902414;29;20829;-83
2022/05/04 00:34:19;;;;;;;9.47;8.57;;;10.90;99.90;;;;;;4889279;29;20207;-83
2022/05/04 00:36:45;;;;;;;11.70;9.40;;;10.80;99.90;;;;;;4884595;29;20488;-83
2022/05/04 00:39:13;;;;;;;9.63;8.73;;;10.80;99.90;;;;;;4884123;29;20494;-82
2022/05/04 00:41:40;;;;;;;12.33;10.50;;;10.50;99.90;;;;;;4883807;29;20967;-84
2022/05/04 00:44:07;;;;;;;11.75;10.27;;;10.30;99.90;;;;;;4884697;29;20459;-84
2022/05/04 00:46:33;;;;;;;10.10;9.10;;;10.40;99.90;;;;;;4884642;29;20245;-81
2022/05/04 00:49:00;;;;;;;10.90;10.00;;;10.40;99.90;;;;;;4897870;29;20209;-83
2022/05/04 00:51:28;;;;;;;12.70;10.20;;;10.40;99.90;;;;;;4884566;29;20466;-83
2022/05/04 00:53:55;;;;;;;10.50;9.57;;;10.30;99.90;;;;;;4884539;29;20466;-81
2022/05/04 00:56:23;;;;;;;13.67;12.47;;;10.20;99.90;;;;;;4892940;29;20477;-83
2022/05/04 00:58:55;;;;;;;11.82;10.63;;;10.20;99.90;;;;;;4902646;29;20505;-83
2022/05/04 01:01:22;;;;;;;13.00;11.80;;;10.20;99.90;;;;;;4885192;29;20683;-79
2022/05/04 01:03:49;;;;;;;13.13;11.90;;;10.00;99.90;;;;;;4898183;29;20459;-80
2022/05/04 01:06:16;;;;;;;11.30;10.30;;;10.10;99.90;;;;;;4897436;29;20485;-79
2022/05/04 01:08:43;;;;;;;11.60;10.50;;;10.00;99.90;;;;;;4887149;29;20466;-83
2022/05/04 01:11:09;;;;;;;11.60;10.60;;;10.10;99.90;;;;;;4884032;29;20454;-83
2022/05/04 01:13:38;;;;;;;13.33;12.13;;;10.20;99.90;;;;;;4884232;29;20469;-81
2022/05/04 01:16:05;;;;;;;10.57;9.67;;;10.20;99.90;;;;;;4883762;29;20459;-82
2022/05/04 01:18:31;;;;;;;10.33;9.43;;;10.20;99.90;;;;;;4884266;29;20496;-82
2022/05/04 01:20:58;;;;;;;11.13;10.07;;;10.30;99.90;;;;;;4886855;29;20461;-83
2022/05/04 01:23:27;;;;;;;12.30;11.20;;;10.30;99.90;;;;;;4890136;29;20799;-83
2022/05/04 01:25:54;;;;;;;11.20;10.10;;;10.30;99.90;;;;;;4885762;29;20477;-82
2022/05/04 01:28:21;;;;;;;12.90;11.60;;;10.20;99.90;;;;;;4902434;29;20892;-83
2022/05/04 01:30:48;;;;;;;11.30;10.13;;;10.30;99.90;;;;;;4901976;29;20458;-83
2022/05/04 01:33:14;;;;;;;10.87;10.00;;;10.30;99.90;;;;;;4891437;29;20466;-81
2022/05/04 01:35:41;;;;;;;11.53;10.57;;;10.40;99.90;;;;;;4883970;29;20438;-83
2022/05/04 01:38:08;;;;;;;11.67;10.00;;;10.40;99.90;;;;;;4866073;29;21005;-83
2022/05/04 01:40:36;;;;;;;10.60;9.50;;;10.50;99.90;;;;;;4868481;29;20459;-86
2022/05/04 01:43:03;;;;;;;11.93;10.83;;;10.50;99.90;;;;;;4894236;29;20465;-82
2022/05/04 01:45:30;;;;;;;11.23;10.17;;;10.60;99.90;;;;;;4887227;29;20459;-83
2022/05/04 01:47:56;;;;;;;10.40;9.50;;;10.60;99.90;;;;;;4887163;29;20493;-83
2022/05/04 01:50:23;;;;;;;11.80;10.60;;;10.60;99.90;;;;;;4890054;29;20484;-82
2022/05/04 01:52:50;;;;;;;10.97;9.97;;;10.60;99.90;;;;;;4898197;29;20470;-83
2022/05/04 01:55:18;;;;;;;18.50;11.15;;;10.50;99.90;;;;;;4888311;29;20489;-83
2022/05/04 01:57:46;;;;;;;11.50;10.30;;;10.30;99.90;;;;;;4905508;29;20234;-83
2022/05/04 02:00:13;;;;;;;12.70;11.50;;;10.20;99.90;;;;;;4904790;29;20463;-83
2022/05/04 02:02:40;;;;;;;17.60;12.67;;;10.20;99.90;;;;;;4899952;29;20469;-83
2022/05/04 02:05:08;;;;;;;12.60;11.52;;;10.30;99.90;;;;;;4887241;29;20469;-83
2022/05/04 02:07:35;;;;;;;12.33;10.93;;;10.40;99.90;;;;;;4905272;29;20233;-83
2022/05/04 02:10:03;;;;;;;11.97;10.90;;;10.50;99.90;;;;;;4890666;29;20466;-83
2022/05/04 02:12:30;;;;;;;12.43;11.33;;;10.70;99.90;;;;;;4886912;29;20467;-82
2022/05/04 02:14:58;;;;;;;11.97;10.87;;;10.70;99.90;;;;;;4886949;29;20454;-83
2022/05/04 02:17:25;;;;;;;11.53;10.37;;;10.80;99.90;;;;;;4888835;29;20483;-83
2022/05/04 02:19:52;;;;;;;12.20;11.20;;;10.80;99.90;;;;;;4905665;29;21024;-83
2022/05/04 02:22:19;;;;;;;13.43;11.50;;;10.90;99.90;;;;;;4893953;29;20464;-83
2022/05/04 02:24:46;;;;;;;11.73;10.73;;;11.00;99.90;;;;;;4905085;29;20461;-83
2022/05/04 02:27:12;;;;;;;12.27;11.20;;;11.00;99.90;;;;;;4893060;29;21009;-82
2022/05/04 02:29:39;;;;;;;13.23;12.07;;;11.10;99.90;;;;;;4886744;29;20459;-83
2022/05/04 02:32:08;;;;;;;12.07;10.87;;;11.10;99.90;;;;;;4896228;29;20465;-83
2022/05/04 02:37:54;;;;;;;11.40;10.30;;;11.10;99.90;;;;;;4887010;29;20469;-83
2022/05/04 02:40:08;;;;;;;10.80;9.90;;;11.20;99.90;;;;;;4904213;29;20489;-80
2022/05/04 02:42:36;;;;;;;10.47;9.50;;;11.20;99.90;;;;;;4901109;29;20468;-83
2022/05/04 02:45:03;;;;;;;11.57;10.37;;;11.20;99.90;;;;;;4890188;29;20499;-83
2022/05/04 02:47:32;;;;;;;11.30;10.23;;;11.30;99.90;;;;;;4886205;29;20534;-83
2022/05/04 02:49:58;;;;;;;10.97;9.93;;;11.30;99.90;;;;;;4886153;29;20456;-83
2022/05/04 02:52:25;;;;;;;10.40;9.50;;;11.30;99.90;;;;;;4899466;29;20462;-83
2022/05/04 02:54:52;;;;;;;11.97;10.73;;;11.30;99.90;;;;;;4886273;29;20467;-84
2022/05/04 02:57:18;;;;;;;11.70;10.60;;;11.30;99.90;;;;;;4886097;29;20484;-83
2022/05/04 02:59:45;;;;;;;12.83;11.57;;;11.30;99.90;;;;;;4886474;29;20491;-82
2022/05/04 03:02:30;;;;;;;10.97;9.97;;;11.40;99.90;;;;;;4886039;29;20463;-84
2022/05/04 03:05:00;;;;;;;10.43;9.60;;;11.40;99.90;;;;;;4892835;29;20470;-82
2022/05/04 03:07:27;;;;;;;13.13;11.93;;;11.40;99.90;;;;;;4885476;29;20510;-84
2022/05/04 03:09:54;;;;;;;11.70;10.70;;;11.40;99.90;;;;;;4895178;29;20457;-84
2022/05/04 03:12:21;;;;;;;12.60;11.47;;;11.50;99.90;;;;;;4904597;29;20454;-83
2022/05/04 03:14:48;;;;;;;12.03;10.17;;;11.50;99.90;;;;;;4895776;29;20458;-83
2022/05/04 03:17:15;;;;;;;12.83;11.73;;;11.50;99.90;;;;;;4885157;29;20475;-83
2022/05/04 03:19:41;;;;;;;12.30;11.10;;;11.50;99.90;;;;;;4885654;29;21024;-83
2022/05/04 03:22:10;;;;;;;13.43;12.30;;;11.50;99.90;;;;;;4885477;29;20474;-83
2022/05/04 03:24:38;;;;;;;10.90;9.90;;;11.50;99.90;;;;;;4892707;29;20467;-83
2022/05/04 03:27:06;;;;;;;11.00;10.10;;;11.60;99.90;;;;;;4900578;29;21027;-83
2022/05/04 03:29:33;;;;;;;15.13;10.73;;;11.60;99.90;;;;;;4892601;29;20455;-84
2022/05/04 03:31:59;;;;;;;12.90;11.70;;;11.60;99.90;;;;;;4901811;29;20462;-83
2022/05/04 03:34:26;;;;;;;11.90;10.67;;;11.60;99.90;;;;;;4885135;29;20475;-83
2022/05/04 03:36:54;;;;;;;12.03;11.03;;;11.50;99.90;;;;;;4889818;29;20984;-84
2022/05/04 03:39:22;;;;;;;12.13;10.80;;;11.40;99.90;;;;;;4898843;29;20507;-83
2022/05/04 03:41:49;;;;;;;11.37;10.37;;;11.40;99.90;;;;;;4888489;29;20454;-84
2022/05/04 03:44:16;;;;;;;12.60;11.40;;;11.40;99.90;;;;;;4904555;29;20462;-83
2022/05/04 03:46:44;;;;;;;12.17;10.97;;;11.50;99.90;;;;;;4903988;29;20495;-83
2022/05/04 03:49:12;;;;;;;10.60;9.60;;;11.50;99.90;;;;;;4899891;29;20464;-83
2022/05/04 03:51:38;;;;;;;12.30;11.20;;;11.60;99.90;;;;;;4889621;29;20478;-83
2022/05/04 03:54:05;;;;;;;10.63;9.80;;;11.60;99.90;;;;;;4907894;29;20826;-83
2022/05/04 03:56:34;;;;;;;11.27;10.17;;;11.70;99.90;;;;;;4904455;29;20506;-82
2022/05/04 03:59:01;;;;;;;9.03;8.30;;;11.70;99.90;;;;;;4869355;29;20491;-83
2022/05/04 04:01:28;;;;;;;9.50;8.70;;;11.70;99.90;;;;;;4884213;29;20776;-83
2022/05/04 04:03:55;;;;;;;11.27;10.20;;;11.80;99.90;;;;;;4902829;29;20882;-83
2022/05/04 04:06:22;;;;;;;11.07;9.97;;;11.80;99.90;;;;;;4903579;29;20551;-84
2022/05/04 04:08:49;;;;;;;10.50;9.53;;;11.80;99.90;;;;;;4898407;29;20462;-84
2022/05/04 04:11:16;;;;;;;11.30;10.37;;;11.90;99.90;;;;;;4884706;29;20452;-84
2022/05/04 04:13:44;;;;;;;11.10;10.00;;;11.90;99.90;;;;;;4900326;29;20462;-83
2022/05/04 04:16:11;;;;;;;10.67;9.70;;;11.90;99.90;;;;;;4903089;29;20470;-84
2022/05/04 04:18:37;;;;;;;9.90;9.00;;;12.00;99.90;;;;;;4889410;29;20459;-83
2022/05/04 04:23:49;;;;;;;10.80;9.77;;;12.00;99.90;;;;;;4888010;29;20518;-84
2022/05/04 04:26:16;;;;;;;9.10;8.20;;;12.00;99.90;;;;;;4885014;29;20476;-83
2022/05/04 04:28:44;;;;;;;10.20;9.37;;;12.10;99.90;;;;;;4896838;29;20463;-83
2022/05/04 04:31:11;;;;;;;8.13;7.53;;;12.10;99.90;;;;;;4902968;29;20548;-83
2022/05/04 04:33:39;;;;;;;8.33;7.63;;;12.10;99.90;;;;;;4890208;29;20467;-83
2022/05/04 04:36:06;;;;;;;7.90;7.30;;;12.20;99.90;;;;;;4884590;29;20451;-83
2022/05/04 04:38:33;;;;;;;8.57;7.80;;;12.20;99.90;;;;;;4895204;29;20840;-84
2022/05/04 04:41:00;;;;;;;8.47;7.77;;;12.30;99.90;;;;;;4895161;29;20462;-84
2022/05/04 04:43:26;;;;;;;9.20;8.20;;;12.30;99.90;;;;;;4885704;29;20457;-85
2022/05/04 04:45:54;;;;;;;8.80;8.20;;;12.40;99.90;;;;;;4890380;29;20461;-85
2022/05/04 04:48:22;;;;;;;9.03;8.23;;;12.40;99.90;;;;;;4902845;29;20490;-85
2022/05/04 04:50:49;;;;;;;8.33;7.63;;;12.50;99.90;;;;;;4870552;29;20463;-84
2022/05/04 04:53:17;;;;;;;9.40;8.50;;;12.50;99.90;;;;;;4884822;29;20456;-84
2022/05/04 04:55:45;;;;;;;7.70;7.03;;;12.50;99.90;;;;;;4901209;29;20463;-82
2022/05/04 04:58:13;;;;;;;7.90;7.27;;;12.60;99.90;;;;;;4902827;29;21017;-82
2022/05/04 05:00:40;;;;;;;9.30;8.60;;;12.70;99.90;;;;;;4902057;29;20494;-82
2022/05/04 05:03:08;;;;;;;9.90;7.90;;;12.70;99.90;;;;;;4889684;29;20829;-83
2022/05/04 05:05:35;;;;;;;9.27;8.47;;;12.70;99.90;;;;;;4884497;29;20463;-83
2022/05/04 05:08:02;;;;;;;8.87;7.97;;;12.80;99.90;;;;;;4895184;29;20479;-81
2022/05/04 05:10:29;;;;;;;9.83;8.93;;;12.70;99.90;;;;;;4887214;29;20455;-83
2022/05/04 05:12:55;;;;;;;9.13;8.43;;;12.70;99.90;;;;;;4886534;29;20980;-82
2022/05/04 05:18:08;;;;;;;10.17;9.17;;;12.60;99.90;;;;;;4895103;29;20473;-82
2022/05/04 05:20:34;;;;;;;9.77;8.80;;;12.70;99.90;;;;;;4903252;29;20840;-82
2022/05/04 05:23:03;;;;;;;9.07;8.17;;;12.70;99.90;;;;;;4905609;29;20458;-83
2022/05/04 05:25:30;;;;;;;9.50;7.33;;;12.80;99.90;;;;;;4904557;29;20465;-84
2022/05/04 05:27:57;;;;;;;8.27;7.57;;;12.80;99.90;;;;;;4906535;29;20479;-82
2022/05/04 05:30:24;;;;;;;8.17;7.37;;;12.90;99.90;;;;;;4899256;29;20471;-83
2022/05/04 05:32:51;;;;;;;8.03;7.37;;;13.00;99.90;;;;;;4889308;29;20459;-82
2022/05/04 05:35:19;;;;;;;8.00;7.20;;;13.00;99.90;;;;;;4900382;29;20466;-83
2022/05/04 05:37:46;;;;;;;9.50;8.60;;;12.90;99.90;;;;;;4888298;29;20490;-83
2022/05/04 05:40:13;;;;;;;7.40;6.80;;;12.90;99.90;;;;;;4906336;29;20517;-84
2022/05/04 05:42:40;;;;;;;8.30;7.60;;;12.80;99.90;;;;;;4906155;29;20538;-83
2022/05/04 05:45:08;;;;;;;7.73;7.13;;;12.90;99.90;;;;;;4887783;29;20466;-82
2022/05/04 05:47:35;;;;;;;7.90;7.10;;;13.00;99.90;;;;;;4887400;29;20490;-84
2022/05/04 05:50:01;;;;;;;9.00;7.30;;;13.10;99.90;;;;;;4904334;29;20455;-84
2022/05/04 05:52:29;;;;;;;10.17;6.90;;;13.30;99.90;;;;;;4905844;29;20450;-85
2022/05/04 05:54:56;;;;;;;22.67;7.53;;;13.30;99.90;;;;;;4891367;29;20464;-84
2022/05/04 05:57:23;;;;;;;7.83;7.03;;;13.40;99.90;;;;;;4905406;29;20475;-84
2022/05/04 05:59:50;;;;;;;7.20;6.53;;;13.40;99.90;;;;;;4890603;29;20484;-84
2022/05/04 06:02:19;;;;;;;8.00;7.20;;;13.50;99.90;;;;;;4897505;29;20471;-84
2022/05/04 06:04:46;;;;;;;7.83;7.23;;;13.60;99.90;;;;;;4905784;29;20478;-84
2022/05/04 06:07:13;;;;;;;9.33;8.43;;;13.70;99.90;;;;;;4899709;29;20491;-84
2022/05/04 06:09:41;;;;;;;9.50;8.60;;;13.80;99.90;;;;;;4886796;29;20506;-84
2022/05/04 06:12:09;;;;;;;8.27;7.57;;;13.80;99.90;;;;;;4886754;29;20601;-84
2022/05/04 06:14:36;;;;;;;15.03;9.13;;;13.90;99.90;;;;;;4886922;29;20463;-83
2022/05/04 06:17:02;;;;;;;7.73;7.03;;;14.00;99.90;;;;;;4906094;29;20996;-84
2022/05/04 06:19:29;;;;;;;9.43;8.47;;;14.00;99.90;;;;;;4894488;29;20850;-84
2022/05/04 06:21:56;;;;;;;9.53;8.60;;;14.10;99.90;;;;;;4887451;29;20475;-82
2022/05/04 06:24:23;;;;;;;10.30;9.40;;;14.10;99.90;;;;;;4880247;29;20527;-82
2022/05/04 06:26:51;;;;;;;10.83;9.60;;;14.20;99.90;;;;;;4876986;29;20487;-84
2022/05/04 06:29:17;;;;;;;9.83;8.83;;;14.20;99.90;;;;;;4880141;29;20464;-84
2022/05/04 06:34:28;;;;;;;9.70;8.80;;;14.30;99.90;;;;;;4880440;29;20812;-82
2022/05/04 06:36:55;;;;;;;8.97;8.27;;;14.40;99.90;;;;;;4876238;29;20472;-84
2022/05/04 06:39:22;;;;;;;10.03;8.33;;;14.40;99.90;;;;;;4886028;29;20464;-85
2022/05/04 06:41:48;;;;;;;10.50;9.60;;;14.50;99.90;;;;;;4888583;29;20464;-82
2022/05/04 06:44:17;;;;;;;8.70;7.80;;;14.50;99.90;;;;;;4889428;29;20966;-85
2022/05/04 06:46:43;;;;;;;10.30;9.40;;;14.60;99.90;;;;;;4890853;29;20488;-85
2022/05/04 06:49:13;;;;;;;12.70;9.53;;;14.70;99.90;;;;;;4888053;29;20453;-85
2022/05/04 06:51:40;;;;;;;11.40;10.20;;;14.70;99.90;;;;;;4885466;29;20460;-84
2022/05/04 06:54:07;;;;;;;9.20;8.40;;;14.70;99.90;;;;;;4898313;29;20966;-83
2022/05/04 06:56:33;;;;;;;9.50;8.50;;;14.60;99.90;;;;;;4906344;29;20475;-84
2022/05/04 06:59:00;;;;;;;9.00;8.00;;;14.70;99.90;;;;;;4898285;29;20462;-83
2022/05/04 07:01:29;;;;;;;8.20;7.40;;;14.70;99.90;;;;;;4895391;29;20540;-82
2022/05/04 07:03:56;;;;;;;9.90;8.03;;;14.70;99.90;;;;;;4887361;29;20504;-83
2022/05/04 07:06:23;;;;;;;8.83;8.03;;;14.60;99.90;;;;;;4900674;29;20633;-82
2022/05/04 07:08:50;;;;;;;7.33;6.63;;;14.70;99.90;;;;;;4905638;29;20451;-84
2022/05/04 07:11:16;;;;;;;7.90;7.20;;;14.70;99.90;;;;;;4893051;29;20461;-85
2022/05/04 07:13:43;;;;;;;6.73;6.23;;;14.80;99.90;;;;;;4891202;29;20455;-84
2022/05/04 07:16:10;;;;;;;8.70;8.03;;;14.80;99.90;;;;;;4890815;29;20453;-83
2022/05/04 07:18:38;;;;;;;7.80;7.23;;;14.80;99.90;;;;;;4885735;29;20465;-85
2022/05/04 07:21:05;;;;;;;7.63;6.93;;;14.70;99.90;;;;;;4887406;29;20503;-85
2022/05/04 07:23:32;;;;;;;7.70;7.10;;;14.90;99.90;;;;;;4886991;29;21058;-85
2022/05/04 07:25:59;;;;;;;7.43;6.83;;;15.00;99.90;;;;;;4887028;29;20968;-85
2022/05/04 07:28:27;;;;;;;7.70;7.00;;;14.90;99.90;;;;;;4886888;29;20461;-84
2022/05/04 07:30:54;;;;;;;8.30;7.50;;;15.10;99.90;;;;;;4886142;29;20975;-86
2022/05/04 07:33:20;;;;;;;7.63;7.03;;;15.20;99.90;;;;;;4887669;29;20467;-84
2022/05/04 07:35:48;;;;;;;8.27;7.57;;;15.20;99.90;;;;;;4887216;29;20468;-84
2022/05/04 07:38:15;;;;;;;6.60;6.00;;;15.30;99.90;;;;;;4887105;29;20481;-85
2022/05/04 07:43:27;;;;;;;6.93;6.33;;;15.50;99.90;;;;;;4886440;29;20964;-84
2022/05/04 07:45:55;;;;;;;8.07;7.23;;;15.50;99.90;;;;;;4887735;29;20466;-85
2022/05/04 07:48:22;;;;;;;7.20;6.50;;;15.50;99.90;;;;;;4886859;29;20542;-86
2022/05/04 07:50:50;;;;;;;15.80;7.93;;;15.50;99.90;;;;;;4887231;29;20960;-85
2022/05/04 07:53:17;;;;;;;6.90;6.17;;;15.40;99.90;;;;;;4888037;29;20466;-84
2022/05/04 07:55:43;;;;;;;9.43;7.27;;;15.40;99.90;;;;;;4886247;29;20488;-85
2022/05/04 07:58:10;;;;;;;7.37;6.87;;;15.50;99.90;;;;;;4885911;29;20477;-85
2022/05/04 08:06:07;;;;;;;6.97;6.37;;;15.70;99.90;;;;;;4886439;29;20440;-85
2022/05/04 08:08:34;;;;;;;8.43;7.13;;;15.80;99.90;;;;;;4885649;29;20528;-85
2022/05/04 08:11:01;;;;;;;6.80;6.23;;;15.90;99.90;;;;;;4885679;29;20477;-84
2022/05/04 08:13:27;;;;;;;6.60;5.90;;;16.00;99.90;;;;;;4885372;29;20470;-85
2022/05/04 08:15:54;;;;;;;6.27;5.53;;;16.10;99.90;;;;;;4886048;29;20453;-85
2022/05/04 08:18:21;;;;;;;6.10;5.70;;;16.10;99.90;;;;;;4886048;29;20477;-81
2022/05/04 08:20:48;;;;;;;5.97;5.37;;;16.20;99.90;;;;;;4885848;29;21026;-84
2022/05/04 08:23:16;;;;;;;8.67;6.90;;;16.10;99.90;;;;;;4886331;29;20465;-82
2022/05/04 08:25:44;;;;;;;6.80;6.20;;;16.00;99.90;;;;;;4886645;29;20465;-83
2022/05/04 08:28:12;;;;;;;6.70;6.10;;;16.00;99.90;;;;;;4885964;29;20896;-84
2022/05/04 08:30:39;;;;;;;6.93;6.43;;;15.60;99.90;;;;;;4885961;29;20496;-84
2022/05/04 08:33:06;;;;;;;6.47;6.07;;;15.20;99.90;;;;;;4885928;29;20459;-85
2022/05/04 08:35:33;;;;;;;7.30;6.27;;;15.00;99.90;;;;;;4885988;29;20465;-83
2022/05/04 08:38:00;;;;;;;8.13;7.43;;;15.20;99.90;;;;;;4885977;29;21050;-87
2022/05/04 08:40:29;;;;;;;6.97;6.47;;;15.30;99.90;;;;;;4885122;29;20504;-86
2022/05/04 08:43:00;;;;;;;7.40;6.27;;;15.40;99.90;;;;;;4884943;29;20460;-84
2022/05/04 08:45:26;;;;;;;9.40;6.80;;;15.40;99.90;;;;;;4885381;29;20521;-86
2022/05/04 08:47:55;;;;;;;8.17;7.50;;;15.10;99.90;;;;;;4885796;29;20495;-86
2022/05/04 08:50:23;;;;;;;8.33;7.53;;;15.10;99.90;;;;;;4885326;29;20488;-84
2022/05/04 08:52:53;;;;;;;8.13;7.33;;;14.90;99.90;;;;;;4886158;29;20449;-86
2022/05/04 08:55:21;;;;;;;9.43;8.47;;;14.80;99.90;;;;;;4886888;29;20469;-86
2022/05/04 08:57:49;;;;;;;9.30;8.40;;;14.70;99.90;;;;;;4886779;29;20478;-88
2022/05/04 09:00:17;;;;;;;8.77;8.03;;;14.50;99.90;;;;;;4886626;29;20495;-86
2022/05/04 09:02:44;;;;;;;10.07;9.20;;;14.30;99.90;;;;;;4886972;29;20453;-85
2022/05/04 09:05:16;;;;;;;14.13;9.13;;;14.30;99.90;;;;;;4887364;29;20448;-85
2022/05/04 09:07:42;;;;;;;9.50;8.63;;;14.60;99.90;;;;;;4886600;29;20481;-86
2022/05/04 09:10:16;;;;;;;7.23;6.53;;;14.90;99.90;;;;;;4887187;29;20467;-87
2022/05/04 09:12:43;;;;;;;9.00;8.10;;;15.20;99.90;;;;;;4886729;29;20997;-86
2022/05/04 09:15:22;;;;;;;7.47;6.93;;;15.30;99.90;;;;;;4885871;29;20458;-84
2022/05/04 09:18:04;;;;;;;8.03;6.10;;;14.90;99.90;;;;;;4886043;29;20484;-86
2022/05/04 09:20:47;;;;;;;7.43;6.70;;;14.70;99.90;;;;;;4884829;29;20488;-86
2022/05/04 09:23:17;;;;;;;7.43;6.90;;;14.70;99.90;;;;;;4886822;29;20495;-87
2022/05/04 09:25:44;;;;;;;6.70;6.20;;;14.80;99.90;;;;;;4886932;29;20460;-87
2022/05/04 09:28:13;;;;;;;6.30;5.83;;;15.10;99.90;;;;;;4885805;29;20491;-84
2022/05/04 09:30:49;;;;;;;6.47;5.97;;;15.50;99.90;;;;;;4886105;29;20452;-87
2022/05/04 09:33:23;;;;;;;6.83;6.20;;;15.80;99.90;;;;;;4885931;29;20459;-86
2022/05/04 09:35:51;;;;;;;6.00;5.60;;;15.90;99.90;;;;;;4886584;29;20467;-87
2022/05/04 09:46:48;;;;;;;6.60;6.00;;;15.70;99.90;;;;;;4886113;29;21070;-87
2022/05/04 09:49:16;;;;;;;6.53;6.03;;;16.00;99.90;;;;;;4886654;29;20456;-87
2022/05/04 09:51:45;;;;;;;6.30;5.70;;;16.30;99.90;;;;;;4890955;29;20520;-87
2022/05/04 09:54:18;;;;;;;6.27;5.73;;;16.30;99.90;;;;;;4891156;29;20461;-86
2022/05/04 09:56:50;;;;;;;6.10;5.57;;;16.50;99.90;;;;;;4885373;29;21157;-86
2022/05/04 09:59:18;;;;;;;5.70;5.30;;;16.70;99.90;;;;;;4886129;29;20548;-87
2022/05/04 10:01:46;;;;;;;6.23;5.70;;;16.80;99.90;;;;;;4888089;29;20493;-86
2022/05/04 10:04:13;;;;;;;7.40;6.07;;;17.10;99.90;;;;;;4888141;29;20457;-86
2022/05/04 10:06:41;;;;;;;5.90;5.33;;;17.30;99.90;;;;;;4888114;29;20513;-87
2022/05/04 10:09:08;;;;;;;6.10;5.57;;;17.30;99.90;;;;;;4888634;29;20486;-85
2022/05/04 10:11:35;;;;;;;7.03;6.23;;;17.30;99.90;;;;;;4888365;29;20465;-87
2022/05/04 10:14:04;;;;;;;7.17;6.57;;;17.30;99.90;;;;;;4888356;29;20472;-86
2022/05/04 10:16:36;;;;;;;7.10;6.60;;;17.40;99.90;;;;;;4887382;29;20477;-86
2022/05/04 10:19:09;;;;;;;7.27;6.60;;;17.50;99.90;;;;;;4887009;29;20880;-86
2022/05/04 10:21:38;;;;;;;7.10;6.60;;;17.70;99.90;;;;;;4885677;29;20498;-85
2022/05/04 10:24:08;;;;;;;6.83;6.33;;;18.10;99.90;;;;;;4885731;29;20469;-86
2022/05/04 10:26:36;;;;;;;7.50;6.90;;;18.40;99.90;;;;;;4886380;29;20565;-86
2022/05/04 10:32:08;;;;;;;7.20;6.57;;;18.60;99.90;;;;;;4886241;29;20980;-84
2022/05/04 10:34:42;;;;;;;8.20;7.40;;;18.90;99.90;;;;;;4886503;29;20457;-84
2022/05/04 10:37:09;;;;;;;8.67;7.97;;;18.90;99.90;;;;;;4886982;29;20547;-85
2022/05/04 10:39:36;;;;;;;8.23;7.37;;;19.10;99.90;;;;;;4887274;29;20918;-86
2022/05/04 10:42:03;;;;;;;8.00;7.30;;;19.30;99.90;;;;;;4888215;29;20523;-83
2022/05/04 10:44:51;;;;;;;10.20;8.07;;;19.20;99.90;;;;;;4888457;29;20455;-86
2022/05/04 10:47:18;;;;;;;7.00;6.50;;;19.40;99.90;;;;;;4889703;29;20484;-86
2022/05/04 10:49:46;;;;;;;9.27;8.37;;;19.30;99.90;;;;;;4887609;29;20452;-85
2022/05/04 10:52:13;;;;;;;9.80;8.90;;;19.40;99.90;;;;;;4888641;29;20474;-84
2022/05/04 10:54:48;;;;;;;8.93;8.23;;;19.60;99.90;;;;;;4889532;29;20465;-86
2022/05/04 10:57:15;;;;;;;6.67;6.13;;;19.70;99.90;;;;;;4889278;29;20893;-85
2022/05/04 10:59:42;;;;;;;7.47;5.60;;;19.60;99.90;;;;;;4889693;29;20462;-86
2022/05/04 11:02:13;;;;;;;7.60;6.97;;;19.90;99.90;;;;;;4889272;29;20619;-85
2022/05/04 11:04:41;;;;;;;8.13;7.43;;;20.30;99.90;;;;;;4889890;29;20457;-85
2022/05/04 11:07:10;;;;;;;6.53;6.03;;;20.70;99.90;;;;;;4888587;29;20538;-84
2022/05/04 11:09:39;;;;;;;7.40;6.67;;;21.30;99.40;;;;;;4889526;29;20457;-85
2022/05/04 11:12:08;;;;;;;6.50;6.10;;;21.70;98.70;;;;;;4888247;29;20516;-85
2022/05/04 11:14:35;;;;;;;8.50;7.90;;;22.30;98.00;;;;;;4889190;29;20463;-85
2022/05/04 11:17:08;;;;;;;7.67;7.07;;;22.90;97.00;;;;;;4888839;29;20474;-85
2022/05/04 11:19:35;;;;;;;6.13;5.63;;;23.10;94.90;;;;;;4888574;29;20466;-83
2022/05/04 11:22:02;;;;;;;6.40;5.90;;;23.20;94.40;;;;;;4888744;29;20498;-86
2022/05/04 11:24:30;;;;;;;7.67;6.97;;;23.10;93.70;;;;;;4889601;29;20483;-85
2022/05/04 11:26:57;;;;;;;6.30;5.83;;;23.10;91.40;;;;;;4888692;29;21025;-86
2022/05/04 11:29:26;;;;;;;7.30;6.67;;;23.10;93.00;;;;;;4889312;29;20455;-85
2022/05/04 11:31:55;;;;;;;6.60;6.00;;;23.30;93.10;;;;;;4889420;29;20468;-85
2022/05/04 11:34:23;;;;;;;5.70;5.30;;;23.50;91.50;;;;;;4889261;29;20460;-84
2022/05/04 11:36:52;;;;;;;5.53;5.03;;;23.70;91.50;;;;;;4889490;29;20476;-82
2022/05/04 11:39:20;;;;;;;6.03;5.60;;;24.00;92.10;;;;;;4888748;29;20460;-85
2022/05/04 11:41:50;;;;;;;7.27;6.53;;;24.30;91.30;;;;;;4888758;29;20504;-85
2022/05/04 11:44:18;;;;;;;6.10;5.70;;;24.40;90.30;;;;;;4889360;29;20463;-85
2022/05/04 11:46:47;;;;;;;7.20;6.70;;;24.70;90.20;;;;;;4888476;29;21042;-86
2022/05/04 11:49:13;;;;;;;6.90;6.30;;;24.80;87.50;;;;;;4889905;29;20460;-85
2022/05/04 11:51:42;;;;;;;6.60;5.17;;;24.80;85.20;;;;;;4888181;29;20483;-85
2022/05/04 11:54:09;;;;;;;6.13;5.60;;;24.90;85.50;;;;;;4888705;29;20453;-86
2022/05/04 11:56:36;;;;;;;6.80;6.20;;;24.90;86.60;;;;;;4888877;29;20481;-85
2022/05/04 11:59:05;;;;;;;7.30;6.70;;;24.90;84.80;;;;;;4888538;29;20464;-86
2022/05/04 12:01:32;;;;;;;5.93;5.33;;;24.70;82.80;;;;;;4888328;29;20492;-85
2022/05/04 12:03:59;;;;;;;6.73;6.20;;;24.50;83.60;;;;;;4888140;29;20467;-83
2022/05/04 12:06:27;;;;;;;6.17;5.73;;;24.40;84.70;;;;;;4888742;29;20487;-86
2022/05/04 12:08:55;;;;;;;7.33;6.67;;;24.10;85.50;;;;;;4888951;29;20463;-85
2022/05/04 12:11:23;;;;;;;7.00;6.40;;;23.90;84.60;;;;;;4888543;29;20452;-86
2022/05/04 12:13:51;;;;;;;7.77;7.07;;;23.70;87.10;;;;;;4888497;29;20462;-85
2022/05/04 12:16:20;;;;;;;6.80;6.40;;;23.40;87.70;;;;;;4887952;29;20459;-86
2022/05/04 12:18:47;;;;;;;6.77;6.27;;;23.20;88.20;;;;;;4887952;29;20473;-86
2022/05/04 12:21:16;;;;;;;6.20;5.67;;;23.10;87.80;;;;;;4887690;29;20501;-87
2022/05/04 12:23:45;;;;;;;6.07;5.67;;;23.00;87.30;;;;;;4887387;29;20518;-87
2022/05/04 12:26:13;;;;;;;7.00;6.30;;;23.20;89.80;;;;;;4887693;29;20456;-86
2022/05/04 12:28:41;;;;;;;6.37;5.90;;;23.40;88.40;;;;;;4886328;29;20460;-86
2022/05/04 12:33:56;;;;;;;5.47;5.13;;;23.50;87.60;;;;;;4887567;29;20484;-86
2022/05/04 12:36:24;;;;;;;6.80;6.20;;;23.50;86.30;;;;;;4887612;29;20543;-87
2022/05/04 12:38:52;;;;;;;5.90;5.50;;;23.50;85.70;;;;;;4887446;29;20452;-87
2022/05/04 12:41:21;;;;;;;5.90;4.77;;;23.30;85.00;;;;;;4887199;29;20502;-87
2022/05/04 12:43:49;;;;;;;5.67;5.27;;;23.20;85.50;;;;;;4887113;29;20467;-84
2022/05/04 12:46:18;;;;;;;5.53;5.07;;;23.10;84.40;;;;;;4885805;29;20994;-87
2022/05/04 12:48:46;;;;;;;5.20;4.80;;;23.00;85.80;;;;;;4886514;29;20991;-87
2022/05/04 12:51:16;;;;;;;6.27;5.70;;;23.00;87.60;;;;;;4885451;29;20466;-87
2022/05/04 12:53:47;;;;;;;6.43;5.83;;;22.80;84.70;;;;;;4886569;29;20466;-86
2022/05/04 12:59:01;;;;;;;5.33;4.93;;;22.40;86.70;;;;;;4886943;29;20443;-86
2022/05/04 13:01:28;;;;;;;6.27;5.60;;;22.20;87.20;;;;;;4886289;29;20548;-85
2022/05/04 13:03:55;;;;;;;5.93;5.50;;;22.10;87.50;;;;;;4887258;29;20466;-86
2022/05/04 13:06:24;;;;;;;4.93;4.50;;;21.90;87.70;;;;;;4886975;29;20481;-83
2022/05/04 13:08:51;;;;;;;6.90;5.87;;;21.80;87.60;;;;;;4889179;29;20457;-83
2022/05/04 13:11:18;;;;;;;4.97;4.57;;;21.60;88.00;;;;;;4890953;29;20463;-86
2022/05/04 13:13:45;;;;;;;8.27;5.30;;;21.60;89.00;;;;;;4887449;29;20457;-86
2022/05/04 13:16:13;;;;;;;4.97;4.57;;;21.50;87.50;;;;;;4885840;29;20463;-85
2022/05/04 13:18:40;;;;;;;5.20;4.00;;;21.40;86.80;;;;;;4885154;29;20464;-87